createdAt,value
2023-03-10T00:00:44.292Z,28.73
2023-03-10T00:04:44.286Z,28.73
2023-03-10T00:08:44.214Z,28.71
2023-03-10T00:12:44.186Z,28.72
2023-03-10T00:16:44.200Z,28.76
2023-03-10T00:20:44.374Z,28.70
2023-03-10T00:24:44.370Z,28.66
2023-03-10T00:28:44.299Z,28.72
2023-03-10T00:32:44.338Z,28.69
2023-03-10T00:36:44.201Z,28.63
2023-03-10T00:40:44.175Z,28.63
2023-03-10T00:44:44.152Z,28.66
2023-03-10T00:48:44.122Z,28.64
2023-03-10T00:52:44.075Z,28.63
2023-03-10T00:56:44.067Z,28.60
2023-03-10T01:00:43.996Z,28.63
2023-03-10T01:04:44.071Z,28.64
2023-03-10T01:08:43.941Z,28.63
2023-03-10T01:12:43.946Z,28.60
2023-03-10T01:16:43.864Z,28.60
2023-03-10T01:20:43.880Z,28.60
2023-03-10T01:24:44.065Z,28.57
2023-03-10T01:28:44.153Z,28.63
2023-03-10T01:37:03.275Z,28.58
2023-03-10T01:41:03.272Z,28.54
2023-03-10T01:45:03.236Z,28.53
2023-03-10T01:49:03.208Z,28.49
2023-03-10T01:53:03.143Z,28.48
2023-03-10T01:57:03.108Z,28.54
2023-03-10T02:01:03.110Z,28.54
2023-03-10T02:05:03.075Z,28.48
2023-03-10T02:09:02.983Z,28.55
2023-03-10T02:13:02.969Z,28.55
2023-03-10T02:17:02.885Z,28.52
2023-03-10T02:21:02.889Z,28.52
2023-03-10T02:25:02.849Z,28.52
2023-03-10T02:29:02.785Z,28.48
2023-03-10T02:33:02.798Z,28.51
2023-03-10T02:37:02.733Z,28.49
2023-03-10T02:41:02.705Z,28.50
2023-03-10T02:45:02.674Z,28.45
2023-03-10T02:49:02.658Z,28.47
2023-03-10T02:53:02.735Z,28.45
2023-03-10T02:57:02.766Z,28.48
2023-03-10T03:01:02.810Z,28.44
2023-03-10T03:05:02.763Z,28.44
2023-03-10T03:09:02.747Z,28.48
2023-03-10T03:13:02.782Z,28.47
2023-03-10T03:17:02.845Z,28.45
2023-03-10T03:21:02.739Z,28.44
2023-03-10T03:25:02.749Z,28.43
2023-03-10T03:29:02.730Z,28.43
2023-03-10T03:33:02.764Z,28.41
2023-03-10T03:37:02.719Z,28.45
2023-03-10T03:41:02.769Z,28.41
2023-03-10T03:45:02.775Z,28.40
2023-03-10T03:49:02.808Z,28.42
2023-03-10T03:53:02.829Z,28.43
2023-03-10T03:57:02.768Z,28.43
2023-03-10T04:01:02.795Z,28.40
2023-03-10T04:05:02.777Z,28.42
2023-03-10T04:09:02.840Z,28.40
2023-03-10T04:13:02.827Z,28.42
2023-03-10T04:17:02.794Z,28.41
2023-03-10T04:21:02.833Z,28.46
2023-03-10T04:25:02.826Z,28.36
2023-03-10T04:29:02.889Z,28.39
2023-03-10T04:33:02.863Z,28.42
2023-03-10T04:37:02.879Z,28.37
2023-03-10T04:41:02.909Z,28.41
2023-03-10T04:45:02.932Z,28.39
2023-03-10T04:49:02.910Z,28.36
2023-03-10T04:53:02.935Z,28.39
2023-03-10T04:57:02.978Z,28.39
2023-03-10T05:01:03.870Z,28.39
2023-03-10T05:05:03.071Z,28.36
2023-03-10T05:09:03.196Z,28.37
2023-03-10T05:13:03.182Z,28.31
2023-03-10T05:17:03.250Z,28.23
2023-03-10T05:21:03.283Z,28.23
2023-03-10T05:25:03.277Z,28.10
2023-03-10T05:29:03.290Z,28.09
2023-03-10T05:33:03.322Z,28.06
2023-03-10T05:37:03.289Z,28.03
2023-03-10T05:41:03.311Z,27.99
2023-03-10T05:45:03.337Z,28.02
2023-03-10T05:49:03.430Z,28.02
2023-03-10T05:53:03.464Z,28.02
2023-03-10T05:57:03.473Z,28.02
2023-03-10T06:01:03.457Z,28.03
2023-03-10T06:05:03.451Z,28.05
2023-03-10T06:09:03.473Z,27.98
2023-03-10T06:13:03.468Z,27.93
2023-03-10T06:17:03.572Z,27.96
2023-03-10T06:21:03.480Z,27.89
2023-03-10T06:25:03.517Z,27.83
2023-03-10T06:29:03.537Z,27.79
2023-03-10T06:33:03.509Z,27.04
2023-03-10T06:37:03.602Z,24.76
2023-03-10T06:41:03.635Z,24.58
2023-03-10T06:45:03.730Z,25.37
2023-03-10T06:49:03.745Z,25.91
2023-03-10T06:53:03.958Z,26.07
2023-03-10T06:57:04.166Z,26.06
2023-03-10T07:01:04.106Z,26.42
2023-03-10T07:05:04.186Z,26.74
2023-03-10T07:09:04.060Z,27.22
2023-03-10T07:13:04.191Z,27.56
2023-03-10T07:17:04.286Z,27.85
2023-03-10T07:21:04.174Z,28.13
2023-03-10T07:25:04.119Z,28.39
2023-03-10T07:29:04.075Z,28.65
2023-03-10T07:33:09.240Z,28.78
2023-03-10T07:37:04.147Z,28.99
2023-03-10T07:41:04.126Z,29.25
2023-03-10T07:45:04.272Z,26.69
2023-03-10T07:49:04.414Z,26.33
2023-03-10T07:53:04.365Z,27.65
2023-03-10T07:57:04.345Z,27.89
2023-03-10T08:01:04.468Z,28.07
2023-03-10T08:05:04.797Z,28.33
2023-03-10T08:09:04.857Z,28.52
2023-03-10T08:13:04.933Z,28.75
2023-03-10T08:17:05.119Z,28.91
2023-03-10T08:21:05.166Z,29.10
2023-03-10T08:25:05.264Z,29.33
2023-03-10T08:29:05.234Z,29.55
2023-03-10T08:33:05.407Z,29.84
2023-03-10T08:37:05.327Z,25.23
2023-03-10T08:41:05.410Z,25.39
2023-03-10T08:45:08.430Z,26.00
2023-03-10T08:49:05.411Z,26.70
2023-03-10T08:53:05.381Z,27.02
2023-03-10T08:57:05.374Z,27.34
2023-03-10T09:01:05.322Z,28.51
2023-03-10T09:05:05.237Z,28.03
2023-03-10T09:09:05.238Z,28.02
2023-03-10T09:13:13.626Z,28.07
2023-03-10T09:17:06.164Z,28.38
2023-03-10T09:21:05.150Z,28.65
2023-03-10T09:25:05.091Z,28.80
2023-03-10T09:29:05.220Z,28.55
2023-03-10T09:33:05.422Z,28.34
2023-03-10T09:37:06.962Z,28.24
2023-03-10T09:41:08.052Z,28.12
2023-03-10T09:45:05.255Z,26.08
2023-03-10T09:49:05.264Z,25.02
2023-03-10T09:53:05.238Z,24.01
2023-03-10T09:57:05.225Z,23.75
2023-03-10T10:01:05.187Z,23.16
2023-03-10T10:05:05.168Z,23.05
2023-03-10T10:09:05.920Z,22.81
2023-03-10T10:13:05.019Z,22.69
2023-03-10T10:17:05.028Z,22.50
2023-03-10T10:21:04.969Z,22.58
2023-03-10T10:25:07.631Z,22.70
2023-03-10T10:29:04.997Z,22.49
2023-03-10T10:33:04.859Z,23.56
2023-03-10T10:37:04.817Z,25.32
2023-03-10T10:41:07.465Z,24.80
2023-03-10T10:45:04.792Z,24.57
2023-03-10T10:49:04.690Z,24.72
2023-03-10T10:53:06.832Z,24.92
2023-03-10T10:57:04.643Z,24.81
2023-03-10T11:01:04.734Z,25.32
2023-03-10T11:05:04.598Z,25.99
2023-03-10T11:09:04.520Z,26.33
2023-03-10T11:13:04.464Z,26.76
2023-03-10T11:17:04.547Z,27.13
2023-03-10T11:21:04.465Z,28.23
2023-03-10T11:25:04.389Z,27.98
2023-03-10T11:29:04.457Z,27.55
2023-03-10T11:33:04.334Z,27.61
2023-03-10T11:37:04.310Z,27.89
2023-03-10T11:41:04.286Z,26.74
2023-03-10T11:45:04.211Z,25.14
2023-03-10T11:49:04.282Z,25.71
2023-03-10T11:53:04.145Z,26.58
2023-03-10T11:57:04.202Z,25.90
2023-03-10T12:01:04.226Z,26.20
2023-03-10T12:05:04.380Z,26.28
2023-03-10T12:09:04.450Z,26.23
2023-03-10T12:13:04.540Z,25.74
2023-03-10T12:17:04.566Z,25.66
2023-03-10T12:21:04.573Z,25.88
2023-03-10T12:25:04.588Z,25.13
2023-03-10T12:29:04.610Z,25.36
2023-03-10T12:33:04.639Z,25.99
2023-03-10T12:37:04.734Z,26.11
2023-03-10T12:41:04.765Z,26.04
2023-03-10T12:45:04.823Z,26.01
2023-03-10T12:49:04.817Z,25.95
2023-03-10T12:53:04.881Z,25.91
2023-03-10T12:57:04.907Z,25.93
2023-03-10T13:01:05.081Z,25.99
2023-03-10T13:05:05.235Z,25.95
2023-03-10T13:09:05.195Z,25.93
2023-03-10T13:13:05.114Z,25.99
2023-03-10T13:17:05.099Z,26.16
2023-03-10T13:21:05.070Z,26.17
2023-03-10T13:25:04.994Z,26.26
2023-03-10T13:29:04.979Z,26.35
2023-03-10T13:33:04.953Z,26.34
2023-03-10T13:37:04.941Z,26.48
2023-03-10T13:41:04.867Z,26.52
2023-03-10T13:45:04.886Z,26.52
2023-03-10T13:49:11.671Z,26.57
2023-03-10T13:53:05.048Z,26.56
2023-03-10T13:57:04.975Z,26.63
2023-03-10T14:01:04.993Z,26.72
2023-03-10T14:05:04.920Z,26.68
2023-03-10T14:09:06.425Z,26.70
2023-03-10T14:13:04.818Z,26.71
2023-03-10T14:17:04.856Z,26.74
2023-03-10T14:21:04.756Z,26.77
2023-03-10T14:25:04.687Z,26.75
2023-03-10T14:29:04.671Z,26.78
2023-03-10T14:33:04.659Z,26.74
2023-03-10T14:37:04.559Z,26.82
2023-03-10T14:41:04.563Z,26.81
2023-03-10T14:45:04.530Z,26.88
2023-03-10T14:49:04.505Z,26.85
2023-03-10T14:53:04.445Z,26.85
2023-03-10T14:57:04.403Z,26.82
2023-03-10T15:01:04.346Z,26.79
2023-03-10T15:05:04.516Z,26.81
2023-03-10T15:09:04.332Z,26.80
2023-03-10T15:13:04.294Z,26.87
2023-03-10T15:17:04.675Z,26.87
2023-03-10T15:21:04.196Z,26.88
2023-03-10T15:25:04.133Z,26.83
2023-03-10T15:29:04.164Z,26.85
2023-03-10T15:33:04.108Z,26.80
2023-03-10T15:37:04.013Z,26.84
2023-03-10T15:41:03.984Z,26.86
2023-03-10T15:45:03.979Z,26.75
2023-03-10T15:49:03.933Z,26.72
2023-03-10T15:53:03.911Z,26.69
2023-03-10T15:57:03.846Z,26.69
2023-03-10T16:01:03.814Z,26.70
2023-03-10T16:05:03.862Z,26.73
2023-03-10T16:09:03.738Z,26.66
2023-03-10T16:13:03.690Z,26.70
2023-03-10T16:17:03.671Z,26.74
2023-03-10T16:21:03.655Z,26.75
2023-03-10T16:25:03.570Z,26.74
2023-03-10T16:29:03.561Z,26.70
2023-03-10T16:33:03.480Z,26.89
2023-03-10T16:37:03.497Z,26.93
2023-03-10T16:41:03.399Z,26.97
2023-03-10T16:45:03.391Z,26.88
2023-03-10T16:49:03.386Z,26.93
2023-03-10T16:53:03.344Z,26.90
2023-03-10T16:57:03.258Z,26.90
2023-03-10T17:01:03.458Z,26.87
2023-03-10T17:05:03.475Z,26.98
2023-03-10T17:09:03.602Z,26.92
2023-03-10T17:13:03.678Z,26.92
2023-03-10T17:17:05.860Z,26.96
2023-03-10T17:21:03.708Z,26.97
2023-03-10T17:25:03.717Z,26.93
2023-03-10T17:29:03.687Z,26.94
2023-03-10T17:33:03.614Z,26.94
2023-03-10T17:37:03.595Z,26.94
2023-03-10T17:41:03.565Z,26.94
2023-03-10T17:45:05.175Z,27.01
2023-03-10T17:49:03.469Z,27.02
2023-03-10T17:53:03.451Z,27.05
2023-03-10T17:57:03.436Z,26.99
2023-03-10T18:01:03.361Z,27.04
2023-03-10T18:05:03.321Z,27.08
2023-03-10T18:09:03.301Z,27.08
2023-03-10T18:13:03.232Z,27.10
2023-03-10T18:17:03.209Z,27.14
2023-03-10T18:21:03.205Z,27.10
2023-03-10T18:25:03.100Z,27.04
2023-03-10T18:29:03.079Z,27.06
2023-03-10T18:33:03.110Z,27.05
2023-03-10T18:37:03.286Z,27.05
2023-03-10T18:41:03.514Z,26.93
2023-03-10T18:45:03.707Z,27.02
2023-03-10T18:49:03.874Z,27.00
2023-03-10T18:53:04.102Z,26.95
2023-03-10T18:57:04.451Z,27.01
2023-03-10T19:01:04.262Z,26.98
2023-03-10T19:05:04.175Z,26.98
2023-03-10T19:09:04.171Z,26.95
2023-03-10T19:13:04.506Z,26.90
2023-03-10T19:17:04.126Z,26.93
2023-03-10T19:21:04.048Z,26.92
2023-03-10T19:25:04.022Z,26.90
2023-03-10T19:29:04.002Z,26.88
2023-03-10T19:33:03.972Z,26.88
2023-03-10T19:37:03.901Z,26.89
2023-03-10T19:41:04.124Z,26.84
2023-03-10T19:45:04.268Z,26.85
2023-03-10T19:49:04.384Z,26.84
2023-03-10T19:53:04.209Z,26.82
2023-03-10T19:57:03.998Z,26.78
2023-03-10T20:01:03.951Z,26.76
2023-03-10T20:05:03.878Z,26.79
2023-03-10T20:09:03.888Z,26.76
2023-03-10T20:13:03.832Z,26.74
2023-03-10T20:17:03.758Z,26.73
2023-03-10T20:21:03.719Z,26.74
2023-03-10T20:25:03.664Z,26.80
2023-03-10T20:29:03.868Z,26.76
2023-03-10T20:33:04.006Z,26.73
2023-03-10T20:37:04.002Z,26.73
2023-03-10T20:41:06.538Z,26.72
2023-03-10T20:45:03.911Z,26.75
2023-03-10T20:49:03.877Z,26.76
2023-03-10T20:53:03.858Z,26.76
2023-03-10T20:57:03.822Z,26.74
2023-03-10T21:01:03.772Z,26.80
2023-03-10T21:05:03.698Z,26.81
2023-03-10T21:09:03.698Z,26.92
2023-03-10T21:13:03.621Z,26.84
2023-03-10T21:17:03.791Z,26.92
2023-03-10T21:21:03.579Z,26.96
2023-03-10T21:25:03.574Z,26.94
2023-03-10T21:29:03.464Z,27.01
2023-03-10T21:33:03.516Z,27.01
2023-03-10T21:37:03.605Z,27.01
2023-03-10T21:41:03.568Z,27.02
2023-03-10T21:45:03.548Z,27.04
2023-03-10T21:49:03.502Z,27.10
2023-03-10T21:53:03.500Z,27.13
2023-03-10T21:57:03.415Z,27.10
2023-03-10T22:01:03.441Z,27.11
2023-03-10T22:05:03.377Z,27.14
2023-03-10T22:09:03.300Z,27.16
2023-03-10T22:13:03.328Z,27.14
2023-03-10T22:17:03.251Z,27.17
2023-03-10T22:21:03.174Z,27.11
2023-03-10T22:25:03.126Z,27.17
2023-03-10T22:29:03.122Z,27.20
2023-03-10T22:33:03.090Z,27.21
2023-03-10T22:37:03.057Z,27.24
2023-03-10T22:41:03.110Z,27.22
2023-03-10T22:45:03.129Z,27.22
2023-03-10T22:49:03.167Z,27.27
2023-03-10T22:53:03.242Z,27.30
2023-03-10T22:57:03.309Z,27.25
2023-03-10T23:01:03.336Z,27.27
2023-03-10T23:05:03.374Z,27.27
2023-03-10T23:09:03.406Z,27.28
2023-03-10T23:13:03.479Z,27.31
2023-03-10T23:17:03.683Z,27.31
2023-03-10T23:21:03.788Z,27.30
2023-03-10T23:25:03.845Z,27.29
2023-03-10T23:29:03.794Z,27.32
2023-03-10T23:33:03.770Z,27.35
2023-03-10T23:37:03.800Z,27.37
2023-03-10T23:41:03.742Z,27.39
2023-03-10T23:45:03.762Z,27.35
2023-03-10T23:49:03.750Z,27.40
2023-03-10T23:53:03.752Z,27.37
2023-03-10T23:57:03.785Z,27.38
